Time;durP1;ratioP1;P1;durP2;ratioP2;P2;SDS_P1;SDS_P2;PMS_P1;PMS_P2;Temp;Humidity;BMP_temperature;BMP_pressure;BME280_temperature;BME280_humidity;BME280_pressure;Samples;Min_cycle;Max_cycle;Signal;HPM_P1;HPM_P2
2023/09/26 00:00:08;;;;;;;3.67;3.43;;;10.90;99.90;;;;;;5079512;28;20306;-55
2023/09/26 00:02:36;;;;;;;3.70;3.40;;;10.90;99.90;;;;;;5048432;28;20239;-50
2023/09/26 00:05:07;;;;;;;3.70;3.40;;;10.90;99.90;;;;;;5069189;28;20301;-55
2023/09/26 00:07:37;;;;;;;4.30;3.53;;;10.80;99.90;;;;;;5083745;28;20287;-52
2023/09/26 00:10:04;;;;;;;4.00;3.70;;;10.70;99.90;;;;;;5078452;28;20186;-52
2023/09/26 00:12:31;;;;;;;4.50;4.10;;;10.70;99.90;;;;;;5083208;28;20196;-54
2023/09/26 00:14:58;;;;;;;4.33;4.00;;;10.70;99.90;;;;;;5081529;28;20190;-55
2023/09/26 00:17:24;;;;;;;4.37;3.97;;;10.60;99.90;;;;;;5082025;28;20209;-57
2023/09/26 00:19:51;;;;;;;5.27;4.00;;;10.60;99.90;;;;;;5048027;28;20296;-55
2023/09/26 00:22:19;;;;;;;4.50;4.10;;;10.60;99.90;;;;;;5074914;28;20198;-50
2023/09/26 00:24:47;;;;;;;5.27;3.83;;;10.70;99.90;;;;;;5082129;28;20222;-55
2023/09/26 00:27:17;;;;;;;4.13;3.83;;;10.60;99.90;;;;;;5079091;28;20289;-51
2023/09/26 00:29:44;;;;;;;4.40;4.00;;;10.60;99.90;;;;;;5083648;28;20236;-51
2023/09/26 00:32:11;;;;;;;3.77;3.47;;;10.60;99.90;;;;;;5079638;28;20189;-54
2023/09/26 00:34:38;;;;;;;4.13;3.30;;;10.50;99.90;;;;;;5049589;28;20635;-53
2023/09/26 00:37:05;;;;;;;4.13;3.73;;;10.50;99.90;;;;;;5067907;28;20222;-56
2023/09/26 00:39:34;;;;;;;3.73;3.43;;;10.50;99.90;;;;;;5083405;28;20737;-55
2023/09/26 00:42:03;;;;;;;4.47;4.17;;;10.40;99.90;;;;;;5067916;28;20210;-51
2023/09/26 00:44:31;;;;;;;5.03;3.77;;;10.40;99.90;;;;;;5081828;28;20190;-54
2023/09/26 00:46:59;;;;;;;4.73;4.33;;;10.40;99.90;;;;;;5072625;28;20236;-50
2023/09/26 00:49:28;;;;;;;4.77;3.80;;;10.40;99.90;;;;;;5083295;28;20194;-51
2023/09/26 00:51:56;;;;;;;4.73;4.23;;;10.40;99.90;;;;;;5039188;28;20335;-52
2023/09/26 00:54:22;;;;;;;3.70;3.40;;;10.40;99.90;;;;;;5080169;28;20198;-51
2023/09/26 00:56:49;;;;;;;4.10;3.80;;;10.40;99.90;;;;;;5078308;28;20226;-56
2023/09/26 00:59:18;;;;;;;3.70;3.37;;;10.40;99.90;;;;;;5082409;28;20198;-54
2023/09/26 01:01:48;;;;;;;8.10;6.87;;;10.30;99.90;;;;;;5073788;28;20197;-51
2023/09/26 01:04:16;;;;;;;6.77;6.10;;;10.30;99.90;;;;;;5081115;28;20198;-49
2023/09/26 01:06:43;;;;;;;5.10;4.60;;;10.30;99.90;;;;;;5046273;28;20224;-54
2023/09/26 01:09:11;;;;;;;9.03;7.07;;;10.30;99.90;;;;;;5077770;28;20302;-50
2023/09/26 01:11:38;;;;;;;7.87;5.77;;;10.30;99.90;;;;;;5080654;28;20202;-54
2023/09/26 01:14:05;;;;;;;6.90;6.00;;;10.30;99.90;;;;;;5079012;28;20289;-54
2023/09/26 01:16:34;;;;;;;7.30;5.73;;;10.30;99.90;;;;;;5082818;28;20225;-54
2023/09/26 01:19:00;;;;;;;5.20;4.80;;;10.20;99.90;;;;;;5066737;28;20201;-56
2023/09/26 01:21:28;;;;;;;4.97;4.57;;;10.30;99.90;;;;;;5059708;28;20201;-54
2023/09/26 01:23:57;;;;;;;6.70;6.00;;;10.40;99.90;;;;;;5063412;28;20198;-55
2023/09/26 01:26:24;;;;;;;6.40;5.77;;;10.50;99.90;;;;;;5077897;28;20210;-56
2023/09/26 01:28:51;;;;;;;5.73;5.17;;;10.50;99.90;;;;;;5079810;28;20363;-54
2023/09/26 01:31:18;;;;;;;7.10;6.20;;;10.50;99.90;;;;;;5081856;28;20197;-53
2023/09/26 01:33:45;;;;;;;8.70;6.03;;;10.30;99.90;;;;;;5079769;28;20201;-52
2023/09/26 01:36:11;;;;;;;8.83;6.23;;;10.30;99.90;;;;;;5081051;28;20756;-56
2023/09/26 01:38:38;;;;;;;6.10;5.40;;;10.30;99.90;;;;;;5046280;28;20262;-55
2023/09/26 01:41:06;;;;;;;6.60;5.60;;;10.20;99.90;;;;;;5082004;28;20209;-51
2023/09/26 01:43:34;;;;;;;5.97;5.37;;;10.20;99.90;;;;;;5078665;28;20249;-56
2023/09/26 01:46:01;;;;;;;6.97;5.27;;;10.10;99.90;;;;;;5082096;28;20190;-55
2023/09/26 01:48:28;;;;;;;5.70;4.97;;;10.10;99.90;;;;;;5079658;28;20198;-53
2023/09/26 01:50:55;;;;;;;6.47;5.07;;;10.10;99.90;;;;;;5080132;28;20240;-53
2023/09/26 01:53:22;;;;;;;5.77;5.20;;;10.10;99.90;;;;;;5046268;28;20209;-53
2023/09/26 01:55:49;;;;;;;4.60;4.23;;;10.10;99.90;;;;;;5080177;28;20346;-49
2023/09/26 01:58:17;;;;;;;4.87;4.40;;;10.00;99.90;;;;;;5081889;28;20678;-53
2023/09/26 02:00:44;;;;;;;5.73;5.23;;;10.00;99.90;;;;;;5077444;28;20190;-54
2023/09/26 02:03:11;;;;;;;5.43;4.93;;;10.00;99.90;;;;;;5080824;28;20193;-52
2023/09/26 02:05:38;;;;;;;5.40;5.00;;;10.00;99.90;;;;;;5075085;28;20280;-55
2023/09/26 02:08:05;;;;;;;5.27;4.77;;;9.90;99.90;;;;;;5081548;28;20226;-55
2023/09/26 02:10:32;;;;;;;5.80;5.20;;;9.90;99.90;;;;;;5048960;28;20630;-52
2023/09/26 02:12:59;;;;;;;7.53;5.37;;;9.80;99.90;;;;;;5080921;28;20201;-53
2023/09/26 02:15:27;;;;;;;5.50;4.93;;;9.80;99.90;;;;;;5079289;28;20682;-55
2023/09/26 02:17:54;;;;;;;7.87;5.00;;;9.80;99.90;;;;;;5080778;28;20316;-53
2023/09/26 02:20:21;;;;;;;5.13;4.60;;;9.80;99.90;;;;;;5079453;28;20528;-55
2023/09/26 02:22:49;;;;;;;5.90;5.40;;;9.70;99.90;;;;;;5077702;28;20198;-54
2023/09/26 02:25:18;;;;;;;5.53;5.03;;;9.80;99.90;;;;;;5050388;28;20258;-53
2023/09/26 02:27:46;;;;;;;5.07;4.67;;;9.70;99.90;;;;;;5078904;28;20206;-52
2023/09/26 02:30:16;;;;;;;5.80;5.30;;;9.70;99.90;;;;;;5081803;28;20789;-54
2023/09/26 02:32:44;;;;;;;5.10;4.70;;;9.70;99.90;;;;;;5078452;28;20186;-51
2023/09/26 02:35:13;;;;;;;5.33;4.90;;;9.70;99.90;;;;;;5080845;28;20741;-51
2023/09/26 02:37:41;;;;;;;5.83;5.23;;;9.70;99.90;;;;;;5080491;28;20218;-52
2023/09/26 02:40:10;;;;;;;5.63;5.03;;;9.70;99.90;;;;;;5085550;28;20190;-52
2023/09/26 02:42:38;;;;;;;5.80;5.30;;;9.80;99.90;;;;;;5049955;28;20812;-54
2023/09/26 02:45:05;;;;;;;5.03;4.53;;;9.70;99.90;;;;;;5084368;28;20243;-51
2023/09/26 02:47:32;;;;;;;5.33;4.83;;;9.80;99.90;;;;;;5081634;28;20227;-56
2023/09/26 02:50:01;;;;;;;6.03;4.93;;;9.80;99.90;;;;;;5084233;28;20247;-50
2023/09/26 02:52:28;;;;;;;5.47;4.97;;;9.80;99.90;;;;;;5070052;28;20247;-54
2023/09/26 02:54:55;;;;;;;5.27;4.87;;;9.70;99.90;;;;;;5081621;28;20202;-61
2023/09/26 02:57:22;;;;;;;5.53;4.97;;;9.70;99.90;;;;;;5053721;28;20309;-50
2023/09/26 02:59:49;;;;;;;8.20;5.73;;;9.60;99.90;;;;;;5084085;28;20653;-49
2023/09/26 03:02:16;;;;;;;5.70;5.03;;;9.60;99.90;;;;;;5081265;28;20201;-51
2023/09/26 03:04:47;;;;;;;5.70;5.17;;;9.70;99.90;;;;;;5084498;28;20216;-49
2023/09/26 03:07:15;;;;;;;5.57;5.07;;;9.70;99.90;;;;;;5070082;28;20234;-47
2023/09/26 03:09:42;;;;;;;5.13;4.67;;;9.80;99.90;;;;;;5082906;28;20194;-58
2023/09/26 03:12:09;;;;;;;4.70;4.30;;;9.80;99.90;;;;;;5048718;28;20208;-51
2023/09/26 03:14:36;;;;;;;5.07;4.67;;;9.80;99.90;;;;;;5082652;28;20251;-60
2023/09/26 03:17:05;;;;;;;5.17;4.77;;;9.70;99.90;;;;;;5081515;28;20836;-52
2023/09/26 03:19:33;;;;;;;5.77;5.00;;;9.70;99.90;;;;;;5083470;28;20585;-49
2023/09/26 03:21:59;;;;;;;5.63;5.13;;;9.60;99.90;;;;;;5079936;28;20178;-46
2023/09/26 03:24:28;;;;;;;5.63;5.13;;;9.60;99.90;;;;;;5083093;28;20660;-53
2023/09/26 03:26:55;;;;;;;5.40;5.00;;;9.50;99.90;;;;;;5068849;28;20836;-47
2023/09/26 03:29:23;;;;;;;6.20;5.60;;;9.50;99.90;;;;;;5053927;28;20194;-52
2023/09/26 03:31:51;;;;;;;5.57;5.07;;;9.50;99.90;;;;;;5079815;28;20197;-53
2023/09/26 03:34:18;;;;;;;6.50;5.57;;;9.50;99.90;;;;;;5073109;28;20705;-50
2023/09/26 03:36:45;;;;;;;5.40;4.90;;;9.60;99.90;;;;;;5080082;28;20221;-49
2023/09/26 03:39:12;;;;;;;5.63;5.13;;;9.60;99.90;;;;;;5084392;28;20194;-50
2023/09/26 03:41:40;;;;;;;5.43;4.97;;;9.60;99.90;;;;;;5078528;28;20588;-62
2023/09/26 03:44:07;;;;;;;5.23;4.83;;;9.70;99.90;;;;;;5052756;28;20229;-53
2023/09/26 03:46:34;;;;;;;5.50;5.00;;;9.70;99.90;;;;;;5082703;28;20214;-61
2023/09/26 03:49:02;;;;;;;5.30;4.90;;;9.60;99.90;;;;;;5082646;28;20182;-52
2023/09/26 03:51:28;;;;;;;5.40;4.90;;;9.50;99.90;;;;;;5083429;28;20190;-60
2023/09/26 03:53:55;;;;;;;6.17;5.50;;;9.50;99.90;;;;;;5080332;28;20883;-51
2023/09/26 03:56:22;;;;;;;5.27;4.80;;;9.60;99.90;;;;;;5083725;28;20241;-46
2023/09/26 03:58:50;;;;;;;5.70;5.20;;;9.60;99.90;;;;;;5050502;28;20380;-50
2023/09/26 04:01:17;;;;;;;5.30;4.80;;;9.60;99.90;;;;;;5072666;28;20312;-49
2023/09/26 04:03:46;;;;;;;5.83;5.23;;;9.60;99.90;;;;;;5080702;28;20957;-47
2023/09/26 04:06:13;;;;;;;5.07;4.70;;;9.60;99.90;;;;;;5083846;28;20582;-49
2023/09/26 04:08:40;;;;;;;5.30;4.90;;;9.60;99.90;;;;;;5073264;28;20194;-58
2023/09/26 04:11:12;;;;;;;5.20;4.80;;;9.50;99.90;;;;;;5083421;28;20258;-50
2023/09/26 04:13:39;;;;;;;7.87;5.17;;;9.50;99.90;;;;;;5080770;28;20717;-60
2023/09/26 04:16:07;;;;;;;5.80;5.37;;;9.50;99.90;;;;;;5043220;28;20310;-49
2023/09/26 04:18:34;;;;;;;5.50;5.10;;;9.50;99.90;;;;;;5072627;28;20239;-53
2023/09/26 04:21:03;;;;;;;5.30;4.80;;;9.40;99.90;;;;;;5062890;28;20197;-48
2023/09/26 04:23:30;;;;;;;6.03;5.53;;;9.40;99.90;;;;;;5075376;28;20198;-51
2023/09/26 04:25:57;;;;;;;5.43;5.03;;;9.40;99.90;;;;;;5071808;28;20198;-57
2023/09/26 04:28:24;;;;;;;6.47;5.87;;;9.40;99.90;;;;;;5083950;28;20657;-55
2023/09/26 04:30:51;;;;;;;6.07;5.47;;;9.40;99.90;;;;;;5050515;28;20546;-59
2023/09/26 04:33:19;;;;;;;6.40;5.83;;;9.40;99.90;;;;;;5084030;28;20263;-48
2023/09/26 04:35:46;;;;;;;6.60;5.90;;;9.40;99.90;;;;;;5080190;28;20623;-62
2023/09/26 04:38:13;;;;;;;6.00;5.50;;;9.40;99.90;;;;;;5067656;28;20218;-51
2023/09/26 04:40:40;;;;;;;5.60;5.10;;;9.50;99.90;;;;;;5076607;28;20259;-58
2023/09/26 04:43:06;;;;;;;6.20;5.70;;;9.50;99.90;;;;;;5071253;28;20206;-53
2023/09/26 04:45:34;;;;;;;6.47;5.80;;;9.50;99.90;;;;;;5054725;28;20721;-62
2023/09/26 04:48:00;;;;;;;5.93;4.90;;;9.50;99.90;;;;;;5076865;28;20233;-52
2023/09/26 04:50:29;;;;;;;6.67;4.80;;;9.60;99.90;;;;;;5081511;28;20244;-60
2023/09/26 04:52:57;;;;;;;5.83;5.23;;;9.50;99.90;;;;;;5064332;28;20298;-46
2023/09/26 04:55:24;;;;;;;5.40;5.00;;;9.40;99.90;;;;;;5082154;28;20279;-61
2023/09/26 04:57:51;;;;;;;5.67;5.17;;;9.30;99.90;;;;;;5077024;28;20214;-53
2023/09/26 05:00:19;;;;;;;8.40;5.47;;;9.30;99.90;;;;;;5083005;28;20258;-59
2023/09/26 05:02:50;;;;;;;5.83;5.33;;;9.30;99.90;;;;;;5058750;28;20327;-46
2023/09/26 05:05:18;;;;;;;5.57;5.03;;;9.30;99.90;;;;;;5070941;28;20223;-58
2023/09/26 05:07:48;;;;;;;6.10;5.60;;;9.20;99.90;;;;;;5072511;28;20226;-47
2023/09/26 05:10:16;;;;;;;5.90;5.40;;;9.20;99.90;;;;;;5076447;28;20210;-54
2023/09/26 05:12:43;;;;;;;6.17;5.67;;;9.20;99.90;;;;;;5066928;28;20271;-52
2023/09/26 05:15:12;;;;;;;6.40;5.90;;;9.20;99.90;;;;;;5083456;28;20194;-50
2023/09/26 05:17:43;;;;;;;6.47;5.70;;;9.20;99.90;;;;;;5048711;28;20218;-45
2023/09/26 05:20:11;;;;;;;6.00;5.50;;;9.30;99.90;;;;;;5061860;28;21882;-48
2023/09/26 05:22:40;;;;;;;7.17;5.40;;;9.30;99.90;;;;;;5072240;28;20737;-48
2023/09/26 05:25:09;;;;;;;5.57;5.07;;;9.40;99.90;;;;;;5073695;28;20239;-52
2023/09/26 05:27:38;;;;;;;5.87;5.10;;;9.40;99.90;;;;;;5072889;28;20236;-50
2023/09/26 05:30:07;;;;;;;5.90;5.23;;;9.40;99.90;;;;;;5082181;28;20673;-47
2023/09/26 05:32:33;;;;;;;5.33;4.83;;;9.40;99.90;;;;;;5049203;28;20698;-47
2023/09/26 05:35:00;;;;;;;5.50;5.00;;;9.40;99.90;;;;;;5067029;28;20218;-59
2023/09/26 05:37:28;;;;;;;5.73;5.27;;;9.30;99.90;;;;;;5072264;28;20229;-46
2023/09/26 05:39:55;;;;;;;5.37;4.93;;;9.30;99.90;;;;;;5068013;28;20204;-61
2023/09/26 05:42:23;;;;;;;6.90;6.30;;;9.30;99.90;;;;;;5080089;28;20258;-47
2023/09/26 05:44:50;;;;;;;6.10;5.57;;;9.40;99.90;;;;;;5081649;28;20190;-63
2023/09/26 05:47:17;;;;;;;7.17;6.07;;;9.40;99.90;;;;;;5046757;28;20804;-61
2023/09/26 05:49:44;;;;;;;6.70;6.20;;;9.50;99.90;;;;;;5065048;28;20275;-46
2023/09/26 05:52:11;;;;;;;5.80;5.30;;;9.50;99.90;;;;;;5064129;28;20287;-58
2023/09/26 05:54:38;;;;;;;6.10;5.60;;;9.60;99.90;;;;;;5060904;28;20209;-53
2023/09/26 05:57:05;;;;;;;6.43;5.83;;;9.60;99.90;;;;;;5083296;28;20254;-50
2023/09/26 05:59:33;;;;;;;6.07;5.47;;;9.70;99.90;;;;;;5072684;28;20218;-47
2023/09/26 06:02:00;;;;;;;6.77;6.10;;;9.70;99.90;;;;;;5053132;28;20233;-54
2023/09/26 06:04:27;;;;;;;6.63;6.00;;;9.80;99.90;;;;;;5079837;28;20205;-57
2023/09/26 06:06:55;;;;;;;7.40;5.63;;;9.90;99.90;;;;;;5073251;28;20731;-49
2023/09/26 06:09:22;;;;;;;6.90;5.93;;;9.90;99.90;;;;;;5061990;28;20647;-53
2023/09/26 06:11:49;;;;;;;7.10;6.50;;;10.00;99.90;;;;;;5072458;28;20652;-51
2023/09/26 06:14:16;;;;;;;7.10;6.50;;;10.10;99.90;;;;;;5079840;28;20190;-53
2023/09/26 06:16:44;;;;;;;6.60;6.03;;;10.20;99.90;;;;;;5051087;28;20339;-50
2023/09/26 06:19:11;;;;;;;7.07;6.37;;;10.30;99.90;;;;;;5081868;28;20226;-53
2023/09/26 06:21:38;;;;;;;9.30;7.50;;;10.40;99.90;;;;;;5070013;28;20657;-49
2023/09/26 06:24:06;;;;;;;6.90;6.23;;;10.50;99.90;;;;;;5070723;28;20263;-50
2023/09/26 06:26:33;;;;;;;7.60;6.80;;;10.60;99.90;;;;;;5055097;28;20219;-50
2023/09/26 06:29:00;;;;;;;7.30;6.63;;;10.70;99.90;;;;;;5081811;28;20206;-50
2023/09/26 06:31:27;;;;;;;7.67;6.80;;;10.80;99.90;;;;;;5078733;28;20197;-49
2023/09/26 06:33:56;;;;;;;8.55;7.75;;;10.90;99.90;;;;;;5052057;28;21024;-49
2023/09/26 06:36:23;;;;;;;7.33;6.63;;;11.10;99.90;;;;;;5073413;28;20225;-53
2023/09/26 06:38:50;;;;;;;7.17;6.53;;;11.10;99.90;;;;;;5070658;28;20225;-49
2023/09/26 06:41:16;;;;;;;7.87;6.70;;;11.20;99.90;;;;;;5070374;28;20214;-50
2023/09/26 06:43:43;;;;;;;6.47;5.87;;;11.30;99.90;;;;;;5073442;28;20213;-50
2023/09/26 06:46:10;;;;;;;8.73;6.60;;;11.30;99.90;;;;;;5072487;28;20278;-54
2023/09/26 06:48:38;;;;;;;6.57;6.07;;;11.40;99.90;;;;;;5052503;28;20230;-49
2023/09/26 06:51:08;;;;;;;6.33;5.77;;;11.50;99.90;;;;;;5066295;28;20203;-47
2023/09/26 06:53:35;;;;;;;8.20;6.70;;;11.60;99.90;;;;;;5066363;28;20202;-49
2023/09/26 06:56:03;;;;;;;7.13;6.47;;;11.60;99.90;;;;;;5055574;28;20766;-49
2023/09/26 06:58:30;;;;;;;8.40;6.50;;;11.80;99.90;;;;;;5064979;28;20708;-49
2023/09/26 07:00:57;;;;;;;7.03;6.30;;;11.90;99.90;;;;;;5069567;28;20233;-51
2023/09/26 07:03:27;;;;;;;7.57;6.03;;;12.00;99.90;;;;;;5073447;28;20668;-50
2023/09/26 07:05:54;;;;;;;7.07;6.37;;;12.10;99.90;;;;;;5038221;28;20213;-49
2023/09/26 07:08:22;;;;;;;7.63;6.20;;;12.30;99.90;;;;;;5050799;28;21006;-47
2023/09/26 07:10:49;;;;;;;6.50;5.97;;;12.40;99.90;;;;;;5069738;28;20202;-50
2023/09/26 07:13:17;;;;;;;6.43;5.83;;;12.50;99.90;;;;;;5051617;28;20293;-52
2023/09/26 07:15:44;;;;;;;8.17;5.57;;;12.70;99.90;;;;;;5064935;28;20672;-50
2023/09/26 07:18:12;;;;;;;5.50;5.00;;;12.80;99.90;;;;;;5070609;28;20222;-51
2023/09/26 07:20:46;;;;;;;5.73;4.80;;;12.90;99.90;;;;;;5043630;28;20226;-48
2023/09/26 07:23:14;;;;;;;5.60;5.10;;;13.00;99.90;;;;;;5071616;28;20196;-50
2023/09/26 07:25:43;;;;;;;5.17;4.53;;;13.10;99.90;;;;;;5080195;28;20279;-48
2023/09/26 07:28:10;;;;;;;7.63;5.33;;;13.20;99.90;;;;;;5078882;28;20226;-53
2023/09/26 07:30:37;;;;;;;5.30;4.80;;;13.30;99.90;;;;;;5077848;28;20194;-48
2023/09/26 07:33:04;;;;;;;8.00;5.60;;;13.40;99.90;;;;;;5082793;28;20594;-55
2023/09/26 07:35:31;;;;;;;5.90;5.40;;;13.50;99.90;;;;;;5041230;28;20221;-47
2023/09/26 07:37:59;;;;;;;5.53;5.00;;;13.60;99.90;;;;;;5084636;28;20270;-51
2023/09/26 07:40:26;;;;;;;5.33;4.83;;;13.60;99.90;;;;;;5073670;28;20193;-46
2023/09/26 07:42:54;;;;;;;5.17;4.77;;;13.70;99.90;;;;;;5074347;28;20198;-46
2023/09/26 07:45:21;;;;;;;4.63;4.27;;;13.80;99.90;;;;;;5066209;28;20190;-50
2023/09/26 07:47:48;;;;;;;4.80;4.30;;;13.90;99.90;;;;;;5084140;28;20222;-49
2023/09/26 07:50:15;;;;;;;4.67;4.07;;;13.90;99.90;;;;;;5052878;28;20202;-51
2023/09/26 07:52:42;;;;;;;4.20;3.80;;;14.00;99.90;;;;;;5083953;28;20695;-51
2023/09/26 07:55:09;;;;;;;4.23;3.93;;;14.00;99.90;;;;;;5074408;28;20204;-53
2023/09/26 07:57:36;;;;;;;5.73;4.00;;;14.10;99.90;;;;;;5073562;28;20301;-53
2023/09/26 08:00:11;;;;;;;4.00;3.60;;;14.20;99.90;;;;;;5074943;28;20254;-53
2023/09/26 08:02:37;;;;;;;5.60;4.63;;;14.20;99.90;;;;;;5081174;28;20208;-50
2023/09/26 08:05:06;;;;;;;4.70;4.27;;;14.40;99.90;;;;;;5073218;28;20725;-50
2023/09/26 08:07:33;;;;;;;4.63;4.23;;;14.40;99.90;;;;;;5067793;28;20338;-48
2023/09/26 08:10:00;;;;;;;4.37;4.07;;;14.50;99.90;;;;;;5085198;28;20254;-52
2023/09/26 08:12:28;;;;;;;4.60;4.20;;;14.60;99.90;;;;;;5065949;28;20862;-49
2023/09/26 08:14:55;;;;;;;5.77;4.27;;;14.70;99.90;;;;;;5083617;28;20247;-47
2023/09/26 08:17:23;;;;;;;4.70;4.30;;;14.80;99.90;;;;;;5066587;28;20209;-48
2023/09/26 08:19:50;;;;;;;5.23;3.70;;;14.90;99.90;;;;;;5084816;28;20676;-49
2023/09/26 08:22:17;;;;;;;5.13;4.33;;;15.00;99.90;;;;;;5051383;28;20229;-52
2023/09/26 08:24:44;;;;;;;3.90;3.50;;;15.00;99.90;;;;;;5085349;28;20244;-47
2023/09/26 08:27:11;;;;;;;3.90;3.50;;;15.10;99.90;;;;;;5067032;28;20224;-51
2023/09/26 08:29:38;;;;;;;4.30;3.30;;;15.20;99.90;;;;;;5084379;28;20194;-52
2023/09/26 08:32:05;;;;;;;4.73;4.30;;;15.10;99.90;;;;;;5075371;28;20247;-53
2023/09/26 08:34:33;;;;;;;3.47;3.17;;;15.10;99.90;;;;;;5081728;28;20232;-49
2023/09/26 08:37:00;;;;;;;4.13;3.63;;;15.10;99.90;;;;;;5054719;28;20283;-51
2023/09/26 08:39:27;;;;;;;3.60;3.30;;;15.20;99.90;;;;;;5081190;28;20209;-52
2023/09/26 08:41:55;;;;;;;7.87;4.90;;;15.20;99.90;;;;;;5075244;28;20598;-51
2023/09/26 08:44:22;;;;;;;4.93;4.53;;;15.20;99.90;;;;;;5073644;28;20267;-50
2023/09/26 08:46:49;;;;;;;3.87;3.57;;;15.20;99.90;;;;;;5085033;28;20218;-47
2023/09/26 08:49:15;;;;;;;4.37;3.57;;;15.20;99.90;;;;;;5069254;28;20279;-52
2023/09/26 08:51:44;;;;;;;4.37;4.00;;;15.30;99.90;;;;;;5053173;28;20265;-49
2023/09/26 08:54:10;;;;;;;5.67;4.50;;;15.30;99.90;;;;;;5082916;28;20605;-56
2023/09/26 08:56:37;;;;;;;4.40;3.60;;;15.30;99.90;;;;;;5081967;28;20282;-53
2023/09/26 08:59:06;;;;;;;7.40;5.23;;;15.40;99.90;;;;;;5064971;28;20213;-55
2023/09/26 09:01:34;;;;;;;4.87;3.90;;;15.40;99.90;;;;;;5081404;28;20217;-46
2023/09/26 09:04:01;;;;;;;4.80;4.47;;;15.60;99.90;;;;;;5072946;28;20252;-56
2023/09/26 09:06:28;;;;;;;6.63;5.20;;;15.70;99.90;;;;;;5081308;28;20918;-48
2023/09/26 09:09:09;;;;;;;5.37;4.80;;;15.80;99.90;;;;;;5052727;28;20275;-49
2023/09/26 09:11:36;;;;;;;5.17;4.27;;;16.00;99.90;;;;;;5082996;28;20204;-51
2023/09/26 09:14:02;;;;;;;5.23;4.27;;;16.00;99.90;;;;;;5070272;28;20612;-58
2023/09/26 09:16:29;;;;;;;5.50;4.30;;;16.10;99.90;;;;;;5072892;28;20258;-46
2023/09/26 09:18:58;;;;;;;8.37;4.50;;;16.10;99.90;;;;;;5073194;28;20275;-47
2023/09/26 09:21:27;;;;;;;3.53;3.23;;;16.20;99.90;;;;;;5077897;28;20934;-48
2023/09/26 09:23:55;;;;;;;4.37;3.40;;;16.20;99.90;;;;;;5045596;28;20252;-48
2023/09/26 09:26:26;;;;;;;6.73;3.50;;;16.30;99.90;;;;;;5079841;28;20210;-49
2023/09/26 09:28:55;;;;;;;4.20;3.70;;;16.30;99.90;;;;;;5071092;28;20201;-49
2023/09/26 09:31:22;;;;;;;3.87;3.57;;;16.30;99.90;;;;;;5074070;28;20314;-47
2023/09/26 09:33:52;;;;;;;6.57;3.80;;;16.30;99.90;;;;;;5069056;28;20209;-61
2023/09/26 09:36:20;;;;;;;4.03;3.63;;;16.40;99.90;;;;;;5082298;28;20279;-48
2023/09/26 09:38:47;;;;;;;4.53;3.67;;;16.50;99.90;;;;;;5049512;28;20330;-57
2023/09/26 09:41:13;;;;;;;4.03;3.73;;;16.70;99.90;;;;;;5081626;28;20544;-54
2023/09/26 09:43:42;;;;;;;3.90;3.40;;;17.00;99.90;;;;;;5078197;28;20251;-58
2023/09/26 09:46:10;;;;;;;7.37;3.60;;;17.10;99.90;;;;;;5070479;28;20271;-51
2023/09/26 09:48:42;;;;;;;4.17;3.73;;;17.20;99.90;;;;;;5080303;28;20231;-57
2023/09/26 09:51:11;;;;;;;3.37;3.03;;;17.40;99.90;;;;;;5067088;28;20202;-50
2023/09/26 09:53:42;;;;;;;3.50;3.20;;;17.50;99.90;;;;;;5058207;28;20252;-57
2023/09/26 09:56:09;;;;;;;5.43;3.47;;;17.60;99.90;;;;;;5072659;28;20213;-47
2023/09/26 09:58:41;;;;;;;5.60;3.17;;;17.70;99.90;;;;;;5072491;28;20298;-56
2023/09/26 10:01:09;;;;;;;3.70;3.40;;;17.90;99.90;;;;;;5060454;28;20214;-45
2023/09/26 10:03:36;;;;;;;3.60;3.20;;;18.00;99.90;;;;;;5081244;28;20190;-56
2023/09/26 10:06:08;;;;;;;3.90;3.30;;;18.10;99.90;;;;;;5072945;28;20190;-47
2023/09/26 10:08:36;;;;;;;7.90;5.40;;;18.10;99.90;;;;;;5073236;28;20190;-57
2023/09/26 10:11:05;;;;;;;5.30;3.53;;;18.20;99.90;;;;;;5061045;28;20201;-44
2023/09/26 10:13:32;;;;;;;5.30;3.10;;;18.30;99.90;;;;;;5070757;28;20251;-57
2023/09/26 10:16:05;;;;;;;4.57;3.30;;;18.40;99.90;;;;;;5068654;28;20202;-48
2023/09/26 10:18:34;;;;;;;2.73;2.60;;;18.50;99.90;;;;;;5073948;28;20319;-59
2023/09/26 10:21:01;;;;;;;3.30;3.00;;;18.50;99.90;;;;;;5069352;28;20193;-45
2023/09/26 10:23:28;;;;;;;3.63;3.33;;;18.50;99.90;;;;;;5083134;28;20219;-47
2023/09/26 10:25:55;;;;;;;3.60;3.00;;;18.50;99.90;;;;;;5042921;28;20865;-45
2023/09/26 10:28:22;;;;;;;7.30;3.27;;;18.60;99.90;;;;;;5083448;28;20571;-51
2023/09/26 10:30:55;;;;;;;4.43;3.10;;;18.70;99.90;;;;;;5063718;28;20194;-57
2023/09/26 10:33:22;;;;;;;3.23;2.93;;;18.80;99.90;;;;;;5071170;28;20220;-51
2023/09/26 10:35:50;;;;;;;5.30;3.00;;;18.80;99.90;;;;;;5081755;28;20202;-53
2023/09/26 10:38:19;;;;;;;4.07;3.20;;;19.00;99.90;;;;;;5073959;28;20251;-52
2023/09/26 10:40:47;;;;;;;3.80;3.40;;;19.10;99.90;;;;;;5054579;28;20569;-48
2023/09/26 10:43:15;;;;;;;3.13;2.90;;;19.30;99.90;;;;;;5056164;28;20267;-47
2023/09/26 10:45:46;;;;;;;4.77;3.17;;;19.40;99.90;;;;;;5080790;28;20714;-46
2023/09/26 10:48:18;;;;;;;3.87;3.03;;;19.50;99.90;;;;;;5059452;28;20563;-45
2023/09/26 10:50:46;;;;;;;3.30;3.00;;;19.50;99.90;;;;;;5082004;28;20194;-49
2023/09/26 10:53:14;;;;;;;4.43;3.00;;;19.70;99.90;;;;;;5070615;28;20879;-49
2023/09/26 10:55:42;;;;;;;2.70;2.50;;;19.80;99.90;;;;;;5080657;28;20202;-52
2023/09/26 10:58:09;;;;;;;3.40;2.97;;;20.00;99.90;;;;;;5053921;28;20703;-49
2023/09/26 11:00:35;;;;;;;3.00;2.53;;;20.00;99.90;;;;;;5074435;28;20543;-57
2023/09/26 11:03:03;;;;;;;2.73;2.23;;;20.00;99.90;;;;;;5076745;28;20660;-50
2023/09/26 11:05:31;;;;;;;2.73;2.53;;;20.10;99.90;;;;;;5081395;28;20190;-51
2023/09/26 11:07:58;;;;;;;4.63;3.10;;;20.20;99.90;;;;;;5075727;28;20264;-51
2023/09/26 11:10:26;;;;;;;3.20;3.00;;;20.20;99.90;;;;;;5081412;28;20185;-50
2023/09/26 11:12:53;;;;;;;3.37;3.10;;;20.20;99.90;;;;;;5054797;28;20550;-52
2023/09/26 11:15:19;;;;;;;3.27;2.97;;;20.20;99.90;;;;;;5074885;28;20841;-48
2023/09/26 11:17:49;;;;;;;3.13;2.83;;;20.20;99.90;;;;;;5084653;28;20218;-48
2023/09/26 11:20:16;;;;;;;6.30;3.93;;;20.20;99.90;;;;;;5072690;28;20579;-51
2023/09/26 11:22:47;;;;;;;3.63;3.03;;;20.10;99.90;;;;;;5085964;28;20202;-51
2023/09/26 11:25:15;;;;;;;4.87;3.40;;;20.10;99.90;;;;;;5072768;28;20230;-48
2023/09/26 11:27:44;;;;;;;3.60;3.28;;;20.00;99.90;;;;;;5054751;28;20220;-53
2023/09/26 11:30:14;;;;;;;2.90;2.70;;;20.10;99.90;;;;;;5082475;28;20200;-53
2023/09/26 11:32:42;;;;;;;3.58;3.10;;;20.10;99.90;;;;;;5084979;28;20202;-59
2023/09/26 11:35:10;;;;;;;3.95;3.17;;;20.20;99.90;;;;;;5070825;28;20229;-48
2023/09/26 11:37:38;;;;;;;3.53;2.50;;;20.30;99.90;;;;;;5083472;28;20290;-55
2023/09/26 11:40:11;;;;;;;4.67;2.80;;;20.50;99.90;;;;;;5072115;28;20202;-51
2023/09/26 11:42:46;;;;;;;3.73;2.60;;;20.70;99.90;;;;;;5081412;28;20189;-48
2023/09/26 11:45:21;;;;;;;7.25;3.58;;;20.80;99.90;;;;;;5074724;28;20200;-50
2023/09/26 11:47:48;;;;;;;3.15;2.95;;;21.00;99.90;;;;;;5083863;28;20221;-50
2023/09/26 11:50:15;;;;;;;3.20;2.90;;;21.00;99.90;;;;;;5077093;28;20229;-53
2023/09/26 11:52:42;;;;;;;4.43;2.83;;;21.00;99.90;;;;;;5083337;28;20202;-52
2023/09/26 11:55:10;;;;;;;5.15;2.70;;;21.10;99.90;;;;;;5071139;28;20213;-52
2023/09/26 11:57:37;;;;;;;2.65;2.45;;;21.20;99.90;;;;;;5084136;28;20279;-51
2023/09/26 12:00:15;;;;;;;3.17;2.65;;;21.30;99.90;;;;;;5052871;28;20854;-53
2023/09/26 12:02:43;;;;;;;5.07;2.53;;;21.40;99.90;;;;;;5080982;28;20672;-48
2023/09/26 12:05:11;;;;;;;3.83;2.35;;;21.50;99.90;;;;;;5071905;28;20213;-52
2023/09/26 12:07:38;;;;;;;2.40;2.17;;;21.50;99.90;;;;;;5069836;28;20688;-51
2023/09/26 12:10:07;;;;;;;3.40;2.42;;;21.60;99.90;;;;;;5076819;28;20202;-53
2023/09/26 12:12:34;;;;;;;5.30;2.40;;;21.70;99.90;;;;;;5081018;28;20255;-57
2023/09/26 12:17:56;;;;;;;2.40;2.20;;;21.70;99.90;;;;;;5090880;27;21374;-44
2023/09/26 12:20:24;;;;;;;5.80;2.20;;;21.90;99.90;;;;;;5075914;28;20290;-53
2023/09/26 12:22:52;;;;;;;4.03;2.85;;;21.80;99.90;;;;;;5055113;28;20198;-50
2023/09/26 12:25:22;;;;;;;2.90;1.80;;;21.80;99.90;;;;;;5068543;28;20190;-47
2023/09/26 12:27:49;;;;;;;2.58;2.13;;;21.70;99.90;;;;;;5065126;28;20770;-46
2023/09/26 12:30:16;;;;;;;5.75;2.65;;;21.90;99.90;;;;;;5037466;28;20197;-53
2023/09/26 12:32:43;;;;;;;3.85;2.10;;;22.10;99.90;;;;;;5062271;28;20206;-51
2023/09/26 12:35:11;;;;;;;2.10;1.95;;;22.20;99.90;;;;;;5066899;28;20206;-49
2023/09/26 12:37:40;;;;;;;3.60;2.40;;;22.20;99.90;;;;;;5064334;28;20221;-50
2023/09/26 12:40:08;;;;;;;3.03;1.90;;;22.10;99.90;;;;;;5068642;28;20202;-47
2023/09/26 12:42:35;;;;;;;3.03;2.22;;;22.10;99.90;;;;;;5066850;28;20226;-51
2023/09/26 12:45:03;;;;;;;2.75;2.28;;;22.10;99.90;;;;;;5077595;28;20202;-51
2023/09/26 12:47:30;;;;;;;3.03;2.10;;;22.10;99.90;;;;;;5045678;28;20732;-50
2023/09/26 12:49:56;;;;;;;2.13;2.03;;;22.10;99.90;;;;;;5070249;28;20271;-47
2023/09/26 12:52:27;;;;;;;2.17;2.08;;;22.00;99.90;;;;;;5070752;28;20255;-48
2023/09/26 12:54:54;;;;;;;3.50;2.35;;;22.00;99.90;;;;;;5064756;28;20206;-51